createdAt,value
2018-09-22T00:00:37.753Z,1.90
2018-09-22T00:03:05.160Z,2.83
2018-09-22T00:05:32.259Z,2.20
2018-09-22T00:07:59.418Z,2.33
2018-09-22T00:10:26.464Z,1.90
2018-09-22T00:12:53.479Z,2.13
2018-09-22T00:15:20.591Z,1.80
2018-09-22T00:17:47.914Z,2.03
2018-09-22T00:20:14.993Z,2.30
2018-09-22T00:22:42.024Z,3.10
2018-09-22T00:25:09.406Z,1.97
2018-09-22T00:27:36.498Z,2.30
2018-09-22T00:30:03.540Z,2.47
2018-09-22T00:32:30.936Z,2.97
2018-09-22T00:34:57.968Z,3.43
2018-09-22T00:37:25.160Z,2.50
2018-09-22T00:39:52.261Z,2.67
2018-09-22T00:42:19.317Z,2.77
2018-09-22T00:44:46.462Z,2.80
2018-09-22T00:47:13.838Z,2.87
2018-09-22T00:49:40.956Z,2.80
2018-09-22T00:52:08.078Z,2.47
2018-09-22T00:54:35.477Z,2.70
2018-09-22T00:57:02.760Z,2.83
2018-09-22T00:59:29.788Z,3.17
2018-09-22T01:01:56.945Z,2.73
2018-09-22T01:04:24.037Z,2.70
2018-09-22T01:06:51.143Z,3.23
2018-09-22T01:09:18.585Z,2.60
2018-09-22T01:11:45.798Z,3.07
2018-09-22T01:14:12.819Z,2.77
2018-09-22T01:16:40.214Z,2.53
2018-09-22T01:19:07.429Z,3.10
2018-09-22T01:21:34.509Z,2.60
2018-09-22T01:24:01.543Z,3.20
2018-09-22T01:26:28.609Z,2.30
2018-09-22T01:28:55.690Z,3.20
2018-09-22T01:31:23.179Z,2.53
2018-09-22T01:33:50.280Z,2.50
2018-09-22T01:36:17.365Z,2.30
2018-09-22T01:38:44.797Z,3.20
2018-09-22T01:41:11.905Z,2.50
2018-09-22T01:43:39.007Z,2.17
2018-09-22T01:46:06.353Z,2.70
2018-09-22T01:48:33.422Z,2.60
2018-09-22T01:51:00.564Z,3.00
2018-09-22T01:53:27.632Z,3.10
2018-09-22T01:55:54.708Z,3.57
2018-09-22T01:58:21.788Z,3.00
2018-09-22T02:00:49.361Z,2.83
2018-09-22T02:03:16.485Z,3.77
2018-09-22T02:05:43.543Z,3.50
2018-09-22T02:08:10.942Z,3.80
2018-09-22T02:10:38.197Z,3.10
2018-09-22T02:13:05.254Z,3.13
2018-09-22T02:15:32.315Z,3.40
2018-09-22T02:17:59.403Z,3.87
2018-09-22T02:20:26.432Z,3.73
2018-09-22T02:22:53.748Z,3.77
2018-09-22T02:25:20.861Z,3.90
2018-09-22T02:27:47.922Z,3.23
2018-09-22T02:30:15.407Z,3.40
2018-09-22T02:32:42.469Z,3.37
2018-09-22T02:35:09.505Z,3.50
2018-09-22T02:37:36.958Z,3.20
2018-09-22T02:40:04.077Z,3.27
2018-09-22T02:42:31.145Z,2.73
2018-09-22T02:44:58.193Z,3.00
2018-09-22T02:47:25.265Z,3.10
2018-09-22T02:49:52.347Z,2.97
2018-09-22T02:52:19.681Z,2.27
2018-09-22T02:54:46.749Z,2.87
2018-09-22T02:57:13.790Z,2.77
2018-09-22T02:59:40.946Z,2.90
2018-09-22T03:02:08.079Z,2.87
2018-09-22T03:04:35.116Z,2.80
2018-09-22T03:07:02.451Z,3.07
2018-09-22T03:09:29.482Z,2.90
2018-09-22T03:11:56.558Z,3.20
2018-09-22T03:14:23.956Z,2.97
2018-09-22T03:16:51.029Z,3.10
2018-09-22T03:19:18.093Z,2.70
2018-09-22T03:21:45.148Z,2.93
2018-09-22T03:24:12.192Z,3.20
2018-09-22T03:26:39.270Z,2.93
2018-09-22T03:29:06.625Z,2.70
2018-09-22T03:31:33.738Z,2.70
2018-09-22T03:34:00.869Z,2.73
2018-09-22T03:36:28.318Z,2.57
2018-09-22T03:38:55.410Z,2.93
2018-09-22T03:41:22.510Z,2.50
2018-09-22T03:43:49.600Z,4.13
2018-09-22T03:46:16.664Z,3.20
2018-09-22T03:48:43.757Z,2.70
2018-09-22T03:51:11.213Z,2.10
2018-09-22T03:53:38.336Z,2.53
2018-09-22T03:56:05.446Z,2.80
2018-09-22T03:58:32.880Z,2.47
2018-09-22T04:01:00.040Z,3.20
2018-09-22T04:03:27.117Z,2.47
2018-09-22T04:05:54.217Z,2.57
2018-09-22T04:08:21.342Z,2.20
2018-09-22T04:10:48.481Z,2.37
2018-09-22T04:13:15.808Z,1.93
2018-09-22T04:15:42.877Z,2.00
2018-09-22T04:18:09.925Z,2.00
2018-09-22T04:20:37.325Z,2.60
2018-09-22T04:23:04.402Z,2.20
2018-09-22T04:25:31.523Z,1.73
2018-09-22T04:27:58.885Z,2.03
2018-09-22T04:30:25.970Z,2.47
2018-09-22T04:32:53.054Z,2.50
2018-09-22T04:35:20.107Z,2.23
2018-09-22T04:37:47.257Z,1.80
2018-09-22T04:40:14.339Z,1.90
2018-09-22T04:42:41.744Z,2.07
2018-09-22T04:45:08.875Z,2.20
2018-09-22T04:47:35.927Z,2.20
2018-09-22T04:50:03.434Z,2.37
2018-09-22T04:52:30.534Z,1.67
2018-09-22T04:54:57.589Z,1.83
2018-09-22T04:57:25.027Z,2.20
2018-09-22T04:59:52.056Z,1.63
2018-09-22T05:02:19.134Z,1.70
2018-09-22T05:04:46.197Z,1.70
2018-09-22T05:07:13.310Z,1.30
2018-09-22T05:09:40.509Z,1.57
2018-09-22T05:12:07.915Z,1.63
2018-09-22T05:14:34.984Z,2.00
2018-09-22T05:17:02.048Z,1.40
2018-09-22T05:19:29.096Z,1.90
2018-09-22T05:21:56.239Z,1.80
2018-09-22T05:24:23.322Z,2.00
2018-09-22T05:26:50.652Z,1.40
2018-09-22T05:29:17.727Z,2.20
2018-09-22T05:31:44.833Z,2.33
2018-09-22T05:34:11.884Z,2.27
2018-09-22T05:36:38.906Z,2.40
2018-09-22T05:39:06.869Z,2.27
2018-09-22T05:41:34.331Z,3.00
2018-09-22T05:44:01.450Z,2.60
2018-09-22T05:46:28.477Z,2.40
2018-09-22T05:48:55.892Z,2.37
2018-09-22T05:51:22.933Z,2.43
2018-09-22T05:53:50.066Z,2.40
2018-09-22T05:56:17.458Z,2.67
2018-09-22T05:58:44.526Z,2.30
2018-09-22T06:01:11.577Z,2.70
2018-09-22T06:03:38.738Z,3.10
2018-09-22T06:06:05.804Z,2.20
2018-09-22T06:08:32.910Z,2.17
2018-09-22T06:11:00.334Z,2.50
2018-09-22T06:13:27.389Z,2.43
2018-09-22T06:15:54.453Z,2.57
2018-09-22T06:18:21.566Z,2.10
2018-09-22T06:20:48.643Z,2.70
2018-09-22T06:23:15.900Z,2.90
2018-09-22T06:25:42.912Z,2.77
2018-09-22T06:28:09.993Z,2.27
2018-09-22T06:30:37.106Z,2.50
2018-09-22T06:33:04.424Z,2.50
2018-09-22T06:35:31.456Z,2.60
2018-09-22T06:37:58.641Z,2.10
2018-09-22T06:40:25.704Z,2.50
2018-09-22T06:42:52.761Z,2.43
2018-09-22T06:45:19.890Z,2.40
2018-09-22T06:47:47.362Z,1.97
2018-09-22T06:50:14.388Z,2.10
2018-09-22T06:52:41.464Z,2.27
2018-09-22T06:55:08.801Z,2.27
2018-09-22T06:57:35.896Z,1.73
2018-09-22T07:00:03.033Z,1.83
2018-09-22T07:02:30.430Z,2.10
2018-09-22T07:04:57.457Z,2.10
2018-09-22T07:07:24.610Z,2.30
2018-09-22T07:09:51.733Z,1.87
2018-09-22T07:12:18.802Z,1.97
2018-09-22T07:14:45.878Z,2.17
2018-09-22T07:17:13.228Z,2.20
2018-09-22T07:19:40.396Z,1.50
2018-09-22T07:22:13.507Z,1.73
2018-09-22T07:24:40.702Z,2.60
2018-09-22T07:27:07.805Z,2.40
2018-09-22T07:29:35.275Z,2.90
2018-09-22T07:32:02.344Z,3.33
2018-09-22T07:34:29.387Z,2.37
2018-09-22T07:36:56.581Z,2.10
2018-09-22T07:39:23.575Z,2.60
2018-09-22T07:41:50.618Z,3.30
2018-09-22T07:44:18.120Z,2.37
2018-09-22T07:46:45.164Z,2.97
2018-09-22T07:49:12.230Z,1.60
2018-09-22T07:51:39.632Z,2.70
2018-09-22T07:54:06.676Z,2.87
2018-09-22T07:56:33.759Z,3.80
2018-09-22T07:59:01.265Z,8.87
2018-09-22T08:01:28.342Z,4.87
2018-09-22T08:03:55.466Z,4.20
2018-09-22T08:06:22.827Z,2.70
2018-09-22T08:08:50.193Z,2.30
2018-09-22T08:11:17.281Z,2.30
2018-09-22T08:13:44.689Z,3.10
2018-09-22T08:16:11.817Z,2.87
2018-09-22T08:18:38.789Z,2.60
2018-09-22T08:21:06.154Z,2.93
2018-09-22T08:23:33.288Z,2.50
2018-09-22T08:26:00.368Z,3.27
2018-09-22T08:28:27.457Z,2.50
2018-09-22T08:30:54.591Z,3.70
2018-09-22T08:33:21.647Z,2.57
2018-09-22T08:35:48.998Z,2.80
2018-09-22T08:38:16.019Z,2.40
2018-09-22T08:40:43.007Z,2.40
2018-09-22T08:43:10.317Z,2.67
2018-09-22T08:45:37.327Z,2.40
2018-09-22T08:48:04.627Z,2.30
2018-09-22T08:50:31.634Z,1.97
2018-09-22T08:52:58.826Z,1.70
2018-09-22T08:55:25.942Z,3.57
2018-09-22T08:57:53.540Z,3.63
2018-09-22T09:00:20.593Z,2.73
2018-09-22T09:02:48.953Z,2.70
2018-09-22T09:05:16.444Z,2.00
2018-09-22T09:07:43.482Z,2.50
2018-09-22T09:10:10.463Z,2.43
2018-09-22T09:12:37.818Z,4.50
2018-09-22T09:15:04.816Z,2.53
2018-09-22T09:17:31.850Z,4.23
2018-09-22T09:19:59.035Z,5.13
2018-09-22T09:22:26.070Z,3.10
2018-09-22T09:24:53.199Z,9.07
2018-09-22T09:27:20.321Z,3.60
2018-09-22T09:29:47.341Z,1.77
2018-09-22T09:32:16.631Z,8.97
2018-09-22T09:34:44.474Z,5.50
2018-09-22T09:37:11.417Z,2.77
2018-09-22T09:39:38.609Z,7.23
2018-09-22T09:42:05.663Z,2.30
2018-09-22T09:44:32.634Z,2.27
2018-09-22T09:46:59.862Z,1.90
2018-09-22T09:49:26.949Z,2.70
2018-09-22T09:51:54.079Z,2.60
2018-09-22T09:54:21.227Z,4.13
2018-09-22T09:56:48.543Z,3.23
2018-09-22T09:59:15.541Z,7.53
2018-09-22T10:01:42.654Z,2.43
2018-09-22T10:04:09.931Z,2.53
2018-09-22T10:06:36.997Z,1.80
2018-09-22T10:09:06.145Z,2.13
2018-09-22T10:11:54.298Z,1.63
2018-09-22T10:14:21.475Z,3.87
2018-09-22T10:16:48.494Z,2.63
2018-09-22T10:19:15.896Z,1.60
2018-09-22T10:21:42.902Z,1.80
2018-09-22T10:24:09.918Z,2.53
2018-09-22T10:26:37.093Z,2.80
2018-09-22T10:29:04.225Z,2.07
2018-09-22T10:31:33.352Z,2.03
2018-09-22T10:34:02.700Z,2.10
2018-09-22T10:36:29.829Z,3.03
2018-09-22T10:38:56.852Z,2.20
2018-09-22T10:41:24.276Z,3.60
2018-09-22T10:43:51.540Z,2.80
2018-09-22T10:46:18.710Z,2.70
2018-09-22T10:48:45.849Z,1.93
2018-09-22T10:51:12.859Z,2.47
2018-09-22T10:53:40.011Z,3.40
2018-09-22T10:56:07.397Z,3.50
2018-09-22T10:58:34.467Z,2.03
2018-09-22T11:01:01.603Z,2.73
2018-09-22T11:03:29.174Z,3.50
2018-09-22T11:05:56.447Z,2.50
2018-09-22T11:08:23.593Z,1.83
2018-09-22T11:10:50.803Z,1.70
2018-09-22T11:13:18.013Z,2.50
2018-09-22T11:15:45.213Z,1.93
2018-09-22T11:18:12.604Z,2.20
2018-09-22T11:20:39.714Z,2.30
2018-09-22T11:23:06.798Z,2.13
2018-09-22T11:25:34.374Z,2.67
2018-09-22T11:28:01.510Z,2.10
2018-09-22T11:30:28.667Z,2.77
2018-09-22T11:32:55.766Z,1.70
2018-09-22T11:35:22.818Z,3.87
2018-09-22T11:37:49.963Z,4.40
2018-09-22T11:40:17.420Z,2.80
2018-09-22T11:42:44.562Z,2.63
2018-09-22T11:45:11.722Z,2.40
2018-09-22T11:47:39.330Z,2.30
2018-09-22T11:50:06.494Z,4.27
2018-09-22T11:52:33.745Z,5.20
2018-09-22T11:55:00.897Z,3.63
2018-09-22T11:57:28.075Z,7.93
2018-09-22T11:59:55.102Z,5.80
2018-09-22T12:02:22.610Z,5.43
2018-09-22T12:04:49.627Z,4.50
2018-09-22T12:07:16.741Z,6.07
2018-09-22T12:09:44.132Z,5.30
2018-09-22T12:12:11.345Z,3.60
2018-09-22T12:14:38.444Z,3.90
2018-09-22T12:17:05.626Z,3.50
2018-09-22T12:19:32.796Z,2.57
2018-09-22T12:21:59.929Z,3.50
2018-09-22T12:24:27.120Z,3.30
2018-09-22T12:26:54.221Z,2.57
2018-09-22T12:29:21.298Z,3.03
2018-09-22T12:31:48.826Z,3.00
2018-09-22T12:34:16.021Z,3.40
2018-09-22T12:36:43.209Z,2.40
2018-09-22T12:39:11.622Z,2.50
2018-09-22T12:41:39.201Z,2.80
2018-09-22T12:44:06.462Z,3.00
2018-09-22T12:46:34.225Z,2.50
2018-09-22T12:49:01.658Z,2.73
2018-09-22T12:51:28.768Z,2.47
2018-09-22T12:53:55.899Z,4.80
2018-09-22T12:56:22.938Z,2.40
2018-09-22T12:58:50.005Z,2.40
2018-09-22T13:01:17.427Z,2.43
2018-09-22T13:03:44.836Z,2.10
2018-09-22T13:06:12.002Z,3.67
2018-09-22T13:08:39.448Z,3.60
2018-09-22T13:11:06.442Z,3.90
2018-09-22T13:13:33.497Z,2.60
2018-09-22T13:16:00.594Z,2.57
2018-09-22T13:18:27.626Z,3.07
2018-09-22T13:20:54.674Z,2.40
2018-09-22T13:23:22.091Z,2.17
2018-09-22T13:25:49.160Z,2.03
2018-09-22T13:28:16.203Z,2.27
2018-09-22T13:30:43.672Z,2.13
2018-09-22T13:33:10.694Z,1.90
2018-09-22T13:35:37.734Z,1.80
2018-09-22T13:38:05.171Z,1.97
2018-09-22T13:40:32.214Z,2.10
2018-09-22T13:42:59.258Z,1.77
2018-09-22T13:45:26.302Z,1.90
2018-09-22T13:47:53.605Z,1.60
2018-09-22T13:50:20.739Z,2.40
2018-09-22T13:52:48.160Z,2.20
2018-09-22T13:55:15.240Z,2.63
2018-09-22T13:57:42.418Z,3.23
2018-09-22T14:00:09.929Z,2.20
2018-09-22T14:02:37.029Z,2.30
2018-09-22T14:05:04.273Z,2.37
2018-09-22T14:07:31.456Z,2.20
2018-09-22T14:09:58.607Z,2.63
2018-09-22T14:12:25.733Z,2.53
2018-09-22T14:14:53.339Z,2.90
2018-09-22T14:17:20.487Z,2.80
2018-09-22T14:19:47.572Z,3.50
2018-09-22T14:22:15.044Z,2.50
2018-09-22T14:24:42.090Z,2.23
2018-09-22T14:27:09.327Z,2.50
2018-09-22T14:29:36.727Z,2.00
2018-09-22T14:32:03.887Z,2.57
2018-09-22T14:34:30.968Z,2.53
2018-09-22T14:36:58.094Z,2.30
2018-09-22T14:39:25.241Z,2.33
2018-09-22T14:41:52.336Z,2.53
2018-09-22T14:44:19.812Z,2.57
2018-09-22T14:46:47.015Z,3.63
2018-09-22T14:49:14.121Z,2.80
2018-09-22T14:51:41.579Z,2.47
2018-09-22T14:54:08.910Z,2.10
2018-09-22T14:56:36.295Z,2.70
2018-09-22T14:59:03.758Z,2.20
2018-09-22T15:01:31.081Z,2.73
2018-09-22T15:03:58.238Z,8.07
2018-09-22T15:06:25.410Z,3.97
2018-09-22T15:08:52.409Z,9.43
2018-09-22T15:11:19.396Z,7.97
2018-09-22T15:13:46.855Z,15.33
2018-09-22T15:16:13.849Z,9.23
2018-09-22T15:18:40.791Z,6.40
2018-09-22T15:21:08.314Z,6.40
2018-09-22T15:23:35.547Z,6.27
2018-09-22T15:26:02.791Z,2.60
2018-09-22T15:28:30.140Z,8.23
2018-09-22T15:30:57.341Z,8.40
2018-09-22T15:33:24.438Z,16.07
2018-09-22T15:35:51.489Z,9.57
2018-09-22T15:38:18.502Z,4.97
2018-09-22T15:40:45.475Z,5.03
2018-09-22T15:43:13.070Z,9.53
2018-09-22T15:45:40.235Z,8.20
2018-09-22T15:48:07.315Z,5.13
2018-09-22T15:50:34.603Z,4.93
2018-09-22T15:53:01.690Z,7.67
2018-09-22T15:55:28.682Z,5.07
2018-09-22T15:57:56.137Z,4.07
2018-09-22T16:00:23.356Z,7.90
2018-09-22T16:02:50.632Z,13.63
2018-09-22T16:05:17.761Z,6.67
2018-09-22T16:07:44.796Z,7.20
2018-09-22T16:10:11.853Z,4.47
2018-09-22T16:12:39.311Z,5.43
2018-09-22T16:15:06.265Z,3.23
2018-09-22T16:17:33.224Z,5.73
2018-09-22T16:20:00.566Z,3.70
2018-09-22T16:22:27.919Z,3.70
2018-09-22T16:24:55.273Z,8.43
2018-09-22T16:27:22.703Z,7.03
2018-09-22T16:29:49.730Z,6.27
2018-09-22T16:32:16.778Z,7.37
2018-09-22T16:34:44.090Z,9.17
2018-09-22T16:37:11.149Z,4.67
2018-09-22T16:39:38.270Z,5.90
2018-09-22T16:42:05.525Z,2.50
2018-09-22T16:44:32.682Z,2.87
2018-09-22T16:46:59.726Z,3.73
2018-09-22T16:49:27.069Z,3.07
2018-09-22T16:51:54.144Z,2.40
2018-09-22T16:54:21.280Z,2.37
2018-09-22T16:56:48.462Z,3.40
2018-09-22T16:59:15.515Z,3.23
2018-09-22T17:01:42.860Z,2.20
2018-09-22T17:04:10.231Z,2.60
2018-09-22T17:06:37.289Z,2.97
2018-09-22T17:09:05.952Z,4.47
2018-09-22T17:11:33.113Z,2.70
2018-09-22T17:14:00.403Z,2.40
2018-09-22T17:16:27.440Z,2.40
2018-09-22T17:18:54.787Z,3.03
2018-09-22T17:21:21.961Z,2.50
2018-09-22T17:23:49.004Z,2.17
2018-09-22T17:26:16.189Z,2.63
2018-09-22T17:28:43.510Z,3.60
2018-09-22T17:31:10.520Z,2.37
2018-09-22T17:33:37.864Z,3.00
2018-09-22T17:36:05.401Z,2.50
2018-09-22T17:38:32.495Z,2.50
2018-09-22T17:41:00.024Z,2.20
2018-09-22T17:43:27.268Z,2.70
2018-09-22T17:45:54.318Z,2.20
2018-09-22T17:48:21.613Z,2.70
2018-09-22T17:50:48.814Z,3.20
2018-09-22T17:53:16.082Z,2.87
2018-09-22T17:55:43.236Z,3.10
2018-09-22T17:58:10.322Z,3.53
2018-09-22T18:00:37.322Z,5.30
2018-09-22T18:03:04.877Z,5.10
2018-09-22T18:05:32.098Z,7.90
2018-09-22T18:07:59.147Z,5.13
2018-09-22T18:10:26.574Z,11.90
2018-09-22T18:12:53.746Z,8.33
2018-09-22T18:15:21.549Z,10.93
2018-09-22T18:17:49.198Z,4.60
2018-09-22T18:20:16.430Z,9.13
2018-09-22T18:22:43.639Z,12.53
2018-09-22T18:25:10.786Z,7.20
2018-09-22T18:27:37.781Z,6.47
2018-09-22T18:30:05.095Z,13.03
2018-09-22T18:32:32.464Z,12.27
2018-09-22T18:34:59.659Z,11.10
2018-09-22T18:37:26.769Z,14.63
2018-09-22T18:39:54.304Z,14.40
2018-09-22T18:42:21.358Z,5.70
2018-09-22T18:44:48.593Z,20.73
2018-09-22T18:47:16.098Z,39.27
2018-09-22T18:49:43.101Z,21.77
2018-09-22T18:52:10.258Z,30.67
2018-09-22T18:54:37.419Z,11.73
2018-09-22T18:57:04.511Z,8.07
2018-09-22T18:59:31.598Z,9.97
2018-09-22T19:01:59.059Z,13.20
2018-09-22T19:04:26.205Z,13.23
2018-09-22T19:06:53.281Z,8.10
2018-09-22T19:09:20.340Z,11.80
2018-09-22T19:11:47.492Z,4.87
2018-09-22T19:14:22.359Z,6.17
2018-09-22T19:17:53.767Z,4.70
2018-09-22T19:20:25.050Z,3.53
2018-09-22T19:22:55.154Z,3.03
2018-09-22T19:25:24.503Z,3.40
2018-09-22T19:27:55.716Z,4.03
2018-09-22T19:30:41.488Z,5.30
2018-09-22T19:33:12.825Z,3.13
2018-09-22T19:35:43.104Z,4.57
2018-09-22T19:39:13.947Z,3.00
2018-09-22T19:41:48.934Z,3.87
2018-09-22T19:44:27.476Z,3.27
2018-09-22T19:46:58.060Z,4.60
2018-09-22T19:49:27.820Z,4.70
2018-09-22T19:51:58.644Z,5.80
2018-09-22T19:54:25.767Z,7.43
2018-09-22T19:56:53.363Z,4.00
2018-09-22T19:59:20.372Z,3.53
2018-09-22T20:01:47.461Z,5.53
2018-09-22T20:04:14.851Z,5.73
2018-09-22T20:06:42.887Z,3.27
2018-09-22T20:09:09.893Z,4.80
2018-09-22T20:11:37.021Z,5.10
2018-09-22T20:14:04.105Z,5.63
2018-09-22T20:16:31.160Z,3.30
2018-09-22T20:18:58.173Z,6.23
2018-09-22T20:21:25.420Z,3.00
2018-09-22T20:23:52.478Z,3.70
2018-09-22T20:26:19.782Z,3.07
2018-09-22T20:28:46.881Z,2.67
2018-09-22T20:31:13.959Z,2.10
2018-09-22T20:33:41.449Z,2.73
2018-09-22T20:36:08.531Z,2.63
2018-09-22T20:38:35.634Z,4.40
2018-09-22T20:41:03.227Z,3.93
2018-09-22T20:43:30.311Z,8.23
2018-09-22T20:45:57.410Z,6.50
2018-09-22T20:48:24.526Z,4.30
2018-09-22T20:50:51.720Z,7.80
2018-09-22T20:53:18.788Z,4.63
2018-09-22T20:55:46.243Z,5.73
2018-09-22T20:58:13.538Z,5.40
2018-09-22T21:00:40.786Z,6.50
2018-09-22T21:03:08.272Z,7.93
2018-09-22T21:05:35.473Z,7.30
2018-09-22T21:08:02.598Z,9.20
2018-09-22T21:10:30.064Z,10.80
2018-09-22T21:12:57.308Z,6.47
2018-09-22T21:15:24.418Z,7.53
2018-09-22T21:17:52.090Z,9.30
2018-09-22T21:20:19.207Z,6.10
2018-09-22T21:22:46.500Z,6.23
2018-09-22T21:25:14.164Z,5.80
2018-09-22T21:27:41.254Z,4.43
2018-09-22T21:30:08.337Z,3.73
2018-09-22T21:32:35.767Z,4.80
2018-09-22T21:35:03.046Z,6.20
2018-09-22T21:37:30.346Z,4.13
2018-09-22T21:39:57.537Z,3.73
2018-09-22T21:42:24.634Z,3.70
2018-09-22T21:44:52.072Z,3.23
2018-09-22T21:47:19.623Z,3.03
2018-09-22T21:49:46.631Z,2.40
2018-09-22T21:52:13.764Z,3.20
2018-09-22T21:54:41.166Z,2.80
2018-09-22T21:57:08.523Z,2.20
2018-09-22T21:59:35.701Z,2.90
2018-09-22T22:02:03.145Z,3.77
2018-09-22T22:04:30.213Z,2.80
2018-09-22T22:06:57.289Z,2.93
2018-09-22T22:09:24.857Z,3.23
2018-09-22T22:11:52.106Z,3.10
2018-09-22T22:14:19.200Z,2.60
2018-09-22T22:16:46.657Z,3.53
2018-09-22T22:19:13.865Z,3.40
2018-09-22T22:21:42.523Z,3.13
2018-09-22T22:24:10.033Z,2.83
2018-09-22T22:26:37.059Z,2.80
2018-09-22T22:29:04.214Z,3.03
2018-09-22T22:31:31.596Z,2.93
2018-09-22T22:33:58.615Z,2.80
2018-09-22T22:36:25.620Z,2.87
2018-09-22T22:38:52.816Z,2.83
2018-09-22T22:41:20.181Z,2.83
2018-09-22T22:43:47.300Z,3.27
2018-09-22T22:46:14.674Z,2.60
2018-09-22T22:48:41.961Z,3.00
2018-09-22T22:51:09.075Z,2.60
2018-09-22T22:53:36.695Z,2.90
2018-09-22T22:56:03.926Z,3.40
2018-09-22T22:58:30.967Z,3.17
2018-09-22T23:00:58.602Z,3.03
2018-09-22T23:03:25.819Z,3.10
2018-09-22T23:05:53.130Z,2.83
2018-09-22T23:08:20.088Z,2.97
2018-09-22T23:10:47.293Z,3.13
2018-09-22T23:13:14.480Z,2.90
2018-09-22T23:15:41.870Z,2.87
2018-09-22T23:18:08.925Z,2.80
2018-09-22T23:20:36.105Z,3.17
2018-09-22T23:23:03.377Z,3.50
2018-09-22T23:25:30.421Z,3.23
2018-09-22T23:27:57.433Z,4.00
2018-09-22T23:30:24.851Z,4.20
2018-09-22T23:32:51.826Z,4.30
2018-09-22T23:35:18.872Z,4.20
2018-09-22T23:37:46.070Z,4.40
2018-09-22T23:40:13.068Z,4.97
2018-09-22T23:42:40.214Z,4.13
2018-09-22T23:45:07.867Z,4.97
2018-09-22T23:47:34.858Z,5.07
2018-09-22T23:50:01.942Z,4.60
2018-09-22T23:52:29.427Z,5.27
2018-09-22T23:54:56.537Z,5.50
2018-09-22T23:57:23.525Z,5.20
2018-09-22T23:59:50.534Z,5.40
